sensor_id;sensor_type;location;lat;lon;timestamp;P1;durP1;ratioP1;P2;durP2;ratioP2
72408;SDS011;60402;48.082;11.628;2022-09-12T00:02:24;4.10;;;1.50;;
72408;SDS011;60402;48.082;11.628;2022-09-12T00:04:49;3.65;;;1.60;;
72408;SDS011;60402;48.082;11.628;2022-09-12T00:07:15;2.30;;;1.20;;
72408;SDS011;60402;48.082;11.628;2022-09-12T00:09:40;2.75;;;1.40;;
72408;SDS011;60402;48.082;11.628;2022-09-12T00:12:06;3.40;;;1.30;;
72408;SDS011;60402;48.082;11.628;2022-09-12T00:14:32;5.15;;;1.50;;
72408;SDS011;60402;48.082;11.628;2022-09-12T00:16:57;2.78;;;1.20;;
72408;SDS011;60402;48.082;11.628;2022-09-12T00:19:24;3.30;;;1.40;;
72408;SDS011;60402;48.082;11.628;2022-09-12T00:21:52;3.17;;;1.40;;
72408;SDS011;60402;48.082;11.628;2022-09-12T00:24:18;3.30;;;1.40;;
72408;SDS011;60402;48.082;11.628;2022-09-12T00:26:43;3.70;;;1.42;;
72408;SDS011;60402;48.082;11.628;2022-09-12T00:29:12;5.80;;;2.60;;
72408;SDS011;60402;48.082;11.628;2022-09-12T00:31:40;3.00;;;1.40;;
72408;SDS011;60402;48.082;11.628;2022-09-12T00:34:05;1.98;;;1.13;;
72408;SDS011;60402;48.082;11.628;2022-09-12T00:36:30;3.65;;;1.20;;
72408;SDS011;60402;48.082;11.628;2022-09-12T00:38:56;2.47;;;1.40;;
72408;SDS011;60402;48.082;11.628;2022-09-12T00:41:22;2.70;;;1.30;;
72408;SDS011;60402;48.082;11.628;2022-09-12T00:43:57;4.43;;;1.45;;
72408;SDS011;60402;48.082;11.628;2022-09-12T00:48:55;2.65;;;1.38;;
72408;SDS011;60402;48.082;11.628;2022-09-12T00:51:25;3.20;;;1.23;;
72408;SDS011;60402;48.082;11.628;2022-09-12T00:53:52;4.43;;;1.40;;
72408;SDS011;60402;48.082;11.628;2022-09-12T00:56:19;3.63;;;1.60;;
72408;SDS011;60402;48.082;11.628;2022-09-12T00:58:53;2.80;;;1.05;;
72408;SDS011;60402;48.082;11.628;2022-09-12T01:01:23;3.38;;;1.60;;
72408;SDS011;60402;48.082;11.628;2022-09-12T01:03:49;4.07;;;1.40;;
72408;SDS011;60402;48.082;11.628;2022-09-12T01:06:15;2.88;;;1.40;;
72408;SDS011;60402;48.082;11.628;2022-09-12T01:08:45;2.58;;;1.40;;
72408;SDS011;60402;48.082;11.628;2022-09-12T01:11:12;1.90;;;0.98;;
72408;SDS011;60402;48.082;11.628;2022-09-12T01:13:39;3.30;;;1.35;;
72408;SDS011;60402;48.082;11.628;2022-09-12T01:16:05;3.78;;;1.50;;
72408;SDS011;60402;48.082;11.628;2022-09-12T01:18:43;2.65;;;1.30;;
72408;SDS011;60402;48.082;11.628;2022-09-12T01:27:11;3.33;;;1.58;;
72408;SDS011;60402;48.082;11.628;2022-09-12T01:29:57;4.50;;;1.63;;
72408;SDS011;60402;48.082;11.628;2022-09-12T01:35:44;3.72;;;1.33;;
72408;SDS011;60402;48.082;11.628;2022-09-12T01:43:33;2.58;;;1.15;;
72408;SDS011;60402;48.082;11.628;2022-09-12T01:46:09;2.70;;;1.38;;
72408;SDS011;60402;48.082;11.628;2022-09-12T01:49:01;3.60;;;1.52;;
72408;SDS011;60402;48.082;11.628;2022-09-12T01:54:24;3.03;;;1.40;;
72408;SDS011;60402;48.082;11.628;2022-09-12T01:56:56;3.15;;;1.23;;
72408;SDS011;60402;48.082;11.628;2022-09-12T01:59:27;3.28;;;1.73;;
72408;SDS011;60402;48.082;11.628;2022-09-12T02:01:58;3.25;;;1.40;;
72408;SDS011;60402;48.082;11.628;2022-09-12T02:04:30;2.70;;;1.20;;
72408;SDS011;60402;48.082;11.628;2022-09-12T02:07:10;2.25;;;1.30;;
72408;SDS011;60402;48.082;11.628;2022-09-12T02:09:45;2.25;;;1.23;;
72408;SDS011;60402;48.082;11.628;2022-09-12T02:12:17;3.17;;;1.30;;
72408;SDS011;60402;48.082;11.628;2022-09-12T02:14:48;3.33;;;1.42;;
72408;SDS011;60402;48.082;11.628;2022-09-12T02:17:20;3.15;;;1.20;;
72408;SDS011;60402;48.082;11.628;2022-09-12T02:19:59;2.75;;;1.27;;
72408;SDS011;60402;48.082;11.628;2022-09-12T02:22:30;2.85;;;1.17;;
72408;SDS011;60402;48.082;11.628;2022-09-12T02:25:00;4.05;;;1.30;;
72408;SDS011;60402;48.082;11.628;2022-09-12T02:30:13;2.90;;;1.17;;
72408;SDS011;60402;48.082;11.628;2022-09-12T02:41:12;2.10;;;1.10;;
72408;SDS011;60402;48.082;11.628;2022-09-12T02:43:41;2.90;;;1.33;;
72408;SDS011;60402;48.082;11.628;2022-09-12T02:46:07;3.28;;;1.30;;
72408;SDS011;60402;48.082;11.628;2022-09-12T02:48:36;3.38;;;1.25;;
72408;SDS011;60402;48.082;11.628;2022-09-12T02:51:06;3.65;;;1.30;;
72408;SDS011;60402;48.082;11.628;2022-09-12T02:53:32;3.45;;;1.20;;
72408;SDS011;60402;48.082;11.628;2022-09-12T02:55:58;2.83;;;1.27;;
72408;SDS011;60402;48.082;11.628;2022-09-12T02:58:25;2.85;;;1.30;;
72408;SDS011;60402;48.082;11.628;2022-09-12T03:07:12;3.35;;;1.40;;
72408;SDS011;60402;48.082;11.628;2022-09-12T03:09:44;3.13;;;1.40;;
72408;SDS011;60402;48.082;11.628;2022-09-12T03:18:05;1.98;;;1.30;;
72408;SDS011;60402;48.082;11.628;2022-09-12T03:26:19;2.83;;;1.20;;
72408;SDS011;60402;48.082;11.628;2022-09-12T03:28:51;4.22;;;1.77;;
72408;SDS011;60402;48.082;11.628;2022-09-12T03:31:19;2.83;;;1.30;;
72408;SDS011;60402;48.082;11.628;2022-09-12T03:33:45;4.82;;;1.40;;
72408;SDS011;60402;48.082;11.628;2022-09-12T03:36:15;2.33;;;1.20;;
72408;SDS011;60402;48.082;11.628;2022-09-12T03:38:44;5.40;;;1.35;;
72408;SDS011;60402;48.082;11.628;2022-09-12T03:41:10;2.55;;;1.20;;
72408;SDS011;60402;48.082;11.628;2022-09-12T03:43:35;2.65;;;1.40;;
72408;SDS011;60402;48.082;11.628;2022-09-12T03:46:00;4.60;;;1.63;;
72408;SDS011;60402;48.082;11.628;2022-09-12T03:48:26;3.90;;;1.33;;
72408;SDS011;60402;48.082;11.628;2022-09-12T03:50:51;2.50;;;1.40;;
72408;SDS011;60402;48.082;11.628;2022-09-12T03:53:16;3.60;;;1.57;;
72408;SDS011;60402;48.082;11.628;2022-09-12T03:55:42;3.00;;;1.33;;
72408;SDS011;60402;48.082;11.628;2022-09-12T03:58:07;3.23;;;1.30;;
72408;SDS011;60402;48.082;11.628;2022-09-12T04:00:32;2.83;;;1.50;;
72408;SDS011;60402;48.082;11.628;2022-09-12T04:02:57;2.75;;;1.30;;
72408;SDS011;60402;48.082;11.628;2022-09-12T04:05:23;3.17;;;1.48;;
72408;SDS011;60402;48.082;11.628;2022-09-12T04:07:49;2.67;;;1.23;;
72408;SDS011;60402;48.082;11.628;2022-09-12T04:10:15;3.25;;;1.48;;
72408;SDS011;60402;48.082;11.628;2022-09-12T04:12:41;3.05;;;1.30;;
72408;SDS011;60402;48.082;11.628;2022-09-12T04:15:06;2.85;;;1.35;;
72408;SDS011;60402;48.082;11.628;2022-09-12T04:17:33;2.97;;;1.30;;
72408;SDS011;60402;48.082;11.628;2022-09-12T04:19:59;3.10;;;1.50;;
72408;SDS011;60402;48.082;11.628;2022-09-12T04:22:25;4.10;;;1.33;;
72408;SDS011;60402;48.082;11.628;2022-09-12T04:24:51;3.63;;;1.50;;
72408;SDS011;60402;48.082;11.628;2022-09-12T04:27:16;3.60;;;1.40;;
72408;SDS011;60402;48.082;11.628;2022-09-12T04:29:41;3.00;;;1.40;;
72408;SDS011;60402;48.082;11.628;2022-09-12T04:32:07;3.95;;;1.40;;
72408;SDS011;60402;48.082;11.628;2022-09-12T04:34:32;2.20;;;1.33;;
72408;SDS011;60402;48.082;11.628;2022-09-12T04:36:57;3.17;;;1.37;;
72408;SDS011;60402;48.082;11.628;2022-09-12T04:39:23;3.50;;;1.48;;
72408;SDS011;60402;48.082;11.628;2022-09-12T04:41:49;6.30;;;2.90;;
72408;SDS011;60402;48.082;11.628;2022-09-12T04:44:15;11.07;;;4.88;;
72408;SDS011;60402;48.082;11.628;2022-09-12T04:46:44;8.88;;;4.45;;
72408;SDS011;60402;48.082;11.628;2022-09-12T04:49:11;10.88;;;6.20;;
72408;SDS011;60402;48.082;11.628;2022-09-12T04:51:38;9.48;;;5.07;;
72408;SDS011;60402;48.082;11.628;2022-09-12T04:54:16;9.23;;;3.30;;
72408;SDS011;60402;48.082;11.628;2022-09-12T04:56:44;5.50;;;2.33;;
72408;SDS011;60402;48.082;11.628;2022-09-12T04:59:11;4.35;;;1.83;;
72408;SDS011;60402;48.082;11.628;2022-09-12T05:01:38;4.18;;;1.80;;
72408;SDS011;60402;48.082;11.628;2022-09-12T05:04:04;4.07;;;1.90;;
72408;SDS011;60402;48.082;11.628;2022-09-12T05:06:30;6.50;;;2.13;;
72408;SDS011;60402;48.082;11.628;2022-09-12T05:09:00;6.97;;;2.88;;
72408;SDS011;60402;48.082;11.628;2022-09-12T05:11:28;8.43;;;3.33;;
72408;SDS011;60402;48.082;11.628;2022-09-12T05:13:58;8.88;;;3.83;;
72408;SDS011;60402;48.082;11.628;2022-09-12T05:16:24;5.35;;;2.33;;
72408;SDS011;60402;48.082;11.628;2022-09-12T05:18:50;4.47;;;1.70;;
72408;SDS011;60402;48.082;11.628;2022-09-12T05:21:17;3.42;;;1.40;;
72408;SDS011;60402;48.082;11.628;2022-09-12T05:23:45;4.45;;;1.45;;
72408;SDS011;60402;48.082;11.628;2022-09-12T05:26:13;5.22;;;1.83;;
72408;SDS011;60402;48.082;11.628;2022-09-12T05:28:39;3.95;;;1.50;;
72408;SDS011;60402;48.082;11.628;2022-09-12T05:33:39;5.32;;;1.95;;
72408;SDS011;60402;48.082;11.628;2022-09-12T05:36:06;5.10;;;1.50;;
72408;SDS011;60402;48.082;11.628;2022-09-12T05:38:34;4.78;;;1.50;;
72408;SDS011;60402;48.082;11.628;2022-09-12T05:43:36;4.63;;;1.70;;
72408;SDS011;60402;48.082;11.628;2022-09-12T05:46:03;4.32;;;1.98;;
72408;SDS011;60402;48.082;11.628;2022-09-12T05:48:32;3.92;;;1.83;;
72408;SDS011;60402;48.082;11.628;2022-09-12T05:51:03;3.72;;;1.70;;
72408;SDS011;60402;48.082;11.628;2022-09-12T05:53:33;5.05;;;1.45;;
72408;SDS011;60402;48.082;11.628;2022-09-12T05:56:18;3.30;;;1.50;;
72408;SDS011;60402;48.082;11.628;2022-09-12T05:58:46;3.95;;;1.77;;
72408;SDS011;60402;48.082;11.628;2022-09-12T06:01:16;3.78;;;1.60;;
72408;SDS011;60402;48.082;11.628;2022-09-12T06:03:44;6.75;;;1.90;;
72408;SDS011;60402;48.082;11.628;2022-09-12T06:06:11;3.90;;;1.45;;
72408;SDS011;60402;48.082;11.628;2022-09-12T06:08:38;6.32;;;1.80;;
72408;SDS011;60402;48.082;11.628;2022-09-12T06:11:05;4.10;;;1.67;;
72408;SDS011;60402;48.082;11.628;2022-09-12T06:13:32;4.70;;;1.70;;
72408;SDS011;60402;48.082;11.628;2022-09-12T06:16:17;3.33;;;1.55;;
72408;SDS011;60402;48.082;11.628;2022-09-12T06:18:48;4.20;;;1.50;;
72408;SDS011;60402;48.082;11.628;2022-09-12T06:21:16;4.68;;;1.67;;
72408;SDS011;60402;48.082;11.628;2022-09-12T06:23:41;3.55;;;1.55;;
72408;SDS011;60402;48.082;11.628;2022-09-12T06:26:08;3.45;;;1.42;;
72408;SDS011;60402;48.082;11.628;2022-09-12T06:28:35;3.10;;;1.50;;
72408;SDS011;60402;48.082;11.628;2022-09-12T06:31:02;5.10;;;1.58;;
72408;SDS011;60402;48.082;11.628;2022-09-12T06:33:33;4.32;;;1.58;;
72408;SDS011;60402;48.082;11.628;2022-09-12T06:36:07;3.70;;;1.67;;
72408;SDS011;60402;48.082;11.628;2022-09-12T06:38:35;4.90;;;1.70;;
72408;SDS011;60402;48.082;11.628;2022-09-12T06:41:03;3.65;;;1.27;;
72408;SDS011;60402;48.082;11.628;2022-09-12T06:43:34;3.22;;;1.40;;
72408;SDS011;60402;48.082;11.628;2022-09-12T06:46:00;4.57;;;1.10;;
72408;SDS011;60402;48.082;11.628;2022-09-12T06:48:26;3.75;;;1.33;;
72408;SDS011;60402;48.082;11.628;2022-09-12T06:51:02;3.72;;;1.50;;
72408;SDS011;60402;48.082;11.628;2022-09-12T06:53:31;3.60;;;1.50;;
72408;SDS011;60402;48.082;11.628;2022-09-12T06:56:02;2.67;;;1.35;;
72408;SDS011;60402;48.082;11.628;2022-09-12T06:58:30;3.03;;;1.25;;
72408;SDS011;60402;48.082;11.628;2022-09-12T07:01:03;3.90;;;1.40;;
72408;SDS011;60402;48.082;11.628;2022-09-12T07:03:36;3.38;;;1.30;;
72408;SDS011;60402;48.082;11.628;2022-09-12T07:06:09;3.13;;;1.20;;
72408;SDS011;60402;48.082;11.628;2022-09-12T07:08:37;2.83;;;1.10;;
72408;SDS011;60402;48.082;11.628;2022-09-12T07:11:13;4.45;;;1.50;;
72408;SDS011;60402;48.082;11.628;2022-09-12T07:13:39;3.05;;;1.30;;
72408;SDS011;60402;48.082;11.628;2022-09-12T07:16:06;3.65;;;1.30;;
72408;SDS011;60402;48.082;11.628;2022-09-12T07:18:32;2.70;;;1.30;;
72408;SDS011;60402;48.082;11.628;2022-09-12T07:20:59;3.83;;;1.20;;
72408;SDS011;60402;48.082;11.628;2022-09-12T07:23:26;3.20;;;0.90;;
72408;SDS011;60402;48.082;11.628;2022-09-12T07:25:52;5.05;;;1.23;;
72408;SDS011;60402;48.082;11.628;2022-09-12T07:28:18;3.05;;;1.00;;
72408;SDS011;60402;48.082;11.628;2022-09-12T07:30:43;2.78;;;0.98;;
72408;SDS011;60402;48.082;11.628;2022-09-12T07:33:09;3.17;;;1.10;;
72408;SDS011;60402;48.082;11.628;2022-09-12T07:35:34;2.20;;;0.93;;
72408;SDS011;60402;48.082;11.628;2022-09-12T07:37:59;2.88;;;1.13;;
72408;SDS011;60402;48.082;11.628;2022-09-12T07:40:25;1.23;;;0.80;;
72408;SDS011;60402;48.082;11.628;2022-09-12T07:42:50;1.20;;;0.83;;
72408;SDS011;60402;48.082;11.628;2022-09-12T07:45:16;2.03;;;1.03;;
72408;SDS011;60402;48.082;11.628;2022-09-12T07:47:41;2.20;;;0.80;;
72408;SDS011;60402;48.082;11.628;2022-09-12T07:50:06;1.58;;;0.65;;
72408;SDS011;60402;48.082;11.628;2022-09-12T07:52:32;1.30;;;0.70;;
72408;SDS011;60402;48.082;11.628;2022-09-12T07:54:57;1.37;;;0.70;;
72408;SDS011;60402;48.082;11.628;2022-09-12T07:57:22;1.38;;;0.75;;
72408;SDS011;60402;48.082;11.628;2022-09-12T07:59:49;1.50;;;0.60;;
72408;SDS011;60402;48.082;11.628;2022-09-12T08:02:14;1.00;;;0.60;;
72408;SDS011;60402;48.082;11.628;2022-09-12T08:04:39;2.13;;;1.00;;
72408;SDS011;60402;48.082;11.628;2022-09-12T08:07:06;1.08;;;0.70;;
72408;SDS011;60402;48.082;11.628;2022-09-12T08:09:32;2.17;;;0.80;;
72408;SDS011;60402;48.082;11.628;2022-09-12T08:11:57;1.60;;;0.80;;
72408;SDS011;60402;48.082;11.628;2022-09-12T08:14:23;1.87;;;0.70;;
72408;SDS011;60402;48.082;11.628;2022-09-12T08:16:48;2.75;;;0.80;;
72408;SDS011;60402;48.082;11.628;2022-09-12T08:19:13;2.17;;;0.80;;
72408;SDS011;60402;48.082;11.628;2022-09-12T08:21:39;1.30;;;0.85;;
72408;SDS011;60402;48.082;11.628;2022-09-12T08:24:04;1.73;;;0.90;;
72408;SDS011;60402;48.082;11.628;2022-09-12T08:26:30;1.50;;;0.88;;
72408;SDS011;60402;48.082;11.628;2022-09-12T08:28:58;2.30;;;1.00;;
72408;SDS011;60402;48.082;11.628;2022-09-12T08:31:24;1.05;;;0.70;;
72408;SDS011;60402;48.082;11.628;2022-09-12T08:33:51;2.47;;;0.90;;
72408;SDS011;60402;48.082;11.628;2022-09-12T08:36:19;3.30;;;1.02;;
72408;SDS011;60402;48.082;11.628;2022-09-12T08:38:48;1.98;;;0.73;;
72408;SDS011;60402;48.082;11.628;2022-09-12T08:44:03;2.08;;;0.80;;
72408;SDS011;60402;48.082;11.628;2022-09-12T08:49:14;1.60;;;1.00;;
72408;SDS011;60402;48.082;11.628;2022-09-12T08:51:49;1.58;;;1.00;;
72408;SDS011;60402;48.082;11.628;2022-09-12T08:54:19;1.65;;;0.77;;
72408;SDS011;60402;48.082;11.628;2022-09-12T08:56:48;1.90;;;1.00;;
72408;SDS011;60402;48.082;11.628;2022-09-12T08:59:13;1.38;;;0.75;;
72408;SDS011;60402;48.082;11.628;2022-09-12T09:01:40;0.75;;;0.70;;
72408;SDS011;60402;48.082;11.628;2022-09-12T09:07:21;1.35;;;0.90;;
72408;SDS011;60402;48.082;11.628;2022-09-12T09:17:50;1.23;;;1.05;;
72408;SDS011;60402;48.082;11.628;2022-09-12T09:22:55;2.00;;;1.00;;
72408;SDS011;60402;48.082;11.628;2022-09-12T09:31:14;1.75;;;1.15;;
72408;SDS011;60402;48.082;11.628;2022-09-12T09:33:41;1.75;;;1.23;;
72408;SDS011;60402;48.082;11.628;2022-09-12T09:36:20;2.25;;;1.10;;
72408;SDS011;60402;48.082;11.628;2022-09-12T09:38:52;2.50;;;1.33;;
72408;SDS011;60402;48.082;11.628;2022-09-12T09:41:34;2.28;;;1.30;;
72408;SDS011;60402;48.082;11.628;2022-09-12T09:44:12;2.58;;;1.10;;
72408;SDS011;60402;48.082;11.628;2022-09-12T09:46:37;2.60;;;1.23;;
72408;SDS011;60402;48.082;11.628;2022-09-12T09:49:03;4.57;;;1.90;;
72408;SDS011;60402;48.082;11.628;2022-09-12T09:51:35;2.08;;;1.25;;
72408;SDS011;60402;48.082;11.628;2022-09-12T09:59:08;1.63;;;1.02;;
72408;SDS011;60402;48.082;11.628;2022-09-12T10:01:33;2.70;;;1.48;;
72408;SDS011;60402;48.082;11.628;2022-09-12T10:03:59;3.03;;;1.50;;
72408;SDS011;60402;48.082;11.628;2022-09-12T10:06:25;2.22;;;1.20;;
72408;SDS011;60402;48.082;11.628;2022-09-12T10:09:03;2.83;;;1.20;;
72408;SDS011;60402;48.082;11.628;2022-09-12T10:13:56;3.92;;;1.55;;
72408;SDS011;60402;48.082;11.628;2022-09-12T10:18:55;2.25;;;1.35;;
72408;SDS011;60402;48.082;11.628;2022-09-12T10:21:24;3.60;;;1.98;;
72408;SDS011;60402;48.082;11.628;2022-09-12T10:29:40;2.80;;;1.40;;
72408;SDS011;60402;48.082;11.628;2022-09-12T10:32:11;2.80;;;1.40;;
72408;SDS011;60402;48.082;11.628;2022-09-12T10:34:45;2.50;;;1.38;;
72408;SDS011;60402;48.082;11.628;2022-09-12T10:37:16;2.47;;;1.23;;
72408;SDS011;60402;48.082;11.628;2022-09-12T10:39:47;3.72;;;1.63;;
72408;SDS011;60402;48.082;11.628;2022-09-12T10:42:17;2.22;;;1.20;;
72408;SDS011;60402;48.082;11.628;2022-09-12T10:47:42;2.22;;;1.20;;
72408;SDS011;60402;48.082;11.628;2022-09-12T10:50:24;2.13;;;1.30;;
72408;SDS011;60402;48.082;11.628;2022-09-12T10:52:50;3.10;;;1.38;;
72408;SDS011;60402;48.082;11.628;2022-09-12T10:55:21;2.88;;;1.40;;
72408;SDS011;60402;48.082;11.628;2022-09-12T10:58:02;1.80;;;1.20;;
72408;SDS011;60402;48.082;11.628;2022-09-12T11:00:39;3.30;;;1.20;;
72408;SDS011;60402;48.082;11.628;2022-09-12T11:06:28;2.90;;;1.35;;
72408;SDS011;60402;48.082;11.628;2022-09-12T11:09:04;2.15;;;1.30;;
72408;SDS011;60402;48.082;11.628;2022-09-12T11:11:48;2.17;;;1.08;;
72408;SDS011;60402;48.082;11.628;2022-09-12T11:17:07;2.83;;;1.30;;
72408;SDS011;60402;48.082;11.628;2022-09-12T11:25:33;3.00;;;1.25;;
72408;SDS011;60402;48.082;11.628;2022-09-12T11:33:50;3.25;;;1.30;;
72408;SDS011;60402;48.082;11.628;2022-09-12T11:41:25;2.33;;;1.10;;
72408;SDS011;60402;48.082;11.628;2022-09-12T11:46:26;2.63;;;1.40;;
72408;SDS011;60402;48.082;11.628;2022-09-12T11:51:47;2.17;;;1.20;;
72408;SDS011;60402;48.082;11.628;2022-09-12T11:54:35;2.70;;;1.20;;
72408;SDS011;60402;48.082;11.628;2022-09-12T12:02:47;2.50;;;1.30;;
72408;SDS011;60402;48.082;11.628;2022-09-12T12:07:56;2.60;;;1.25;;
72408;SDS011;60402;48.082;11.628;2022-09-12T12:10:28;3.33;;;1.17;;
72408;SDS011;60402;48.082;11.628;2022-09-12T12:12:56;2.35;;;1.30;;
72408;SDS011;60402;48.082;11.628;2022-09-12T12:15:24;2.40;;;1.20;;
72408;SDS011;60402;48.082;11.628;2022-09-12T12:18:00;3.20;;;1.30;;
72408;SDS011;60402;48.082;11.628;2022-09-12T12:20:26;2.15;;;1.20;;
72408;SDS011;60402;48.082;11.628;2022-09-12T12:22:52;2.65;;;1.38;;
72408;SDS011;60402;48.082;11.628;2022-09-12T12:27:57;3.17;;;1.17;;
72408;SDS011;60402;48.082;11.628;2022-09-12T12:33:50;2.35;;;1.27;;
72408;SDS011;60402;48.082;11.628;2022-09-12T12:38:35;2.35;;;1.30;;
72408;SDS011;60402;48.082;11.628;2022-09-12T12:43:53;1.95;;;1.25;;
72408;SDS011;60402;48.082;11.628;2022-09-12T12:46:26;4.75;;;1.27;;
72408;SDS011;60402;48.082;11.628;2022-09-12T12:53:56;2.80;;;1.30;;
72408;SDS011;60402;48.082;11.628;2022-09-12T12:56:42;2.25;;;1.30;;
72408;SDS011;60402;48.082;11.628;2022-09-12T12:59:25;2.05;;;1.25;;
72408;SDS011;60402;48.082;11.628;2022-09-12T13:01:54;2.38;;;1.30;;
72408;SDS011;60402;48.082;11.628;2022-09-12T13:04:24;3.58;;;1.15;;
72408;SDS011;60402;48.082;11.628;2022-09-12T13:06:59;2.50;;;1.20;;
72408;SDS011;60402;48.082;11.628;2022-09-12T13:09:38;1.83;;;1.20;;
72408;SDS011;60402;48.082;11.628;2022-09-12T13:12:26;3.25;;;1.40;;
72408;SDS011;60402;48.082;11.628;2022-09-12T13:14:55;3.75;;;1.60;;
72408;SDS011;60402;48.082;11.628;2022-09-12T13:22:42;2.75;;;1.27;;
72408;SDS011;60402;48.082;11.628;2022-09-12T13:30:29;2.00;;;1.10;;
72408;SDS011;60402;48.082;11.628;2022-09-12T13:32:57;2.38;;;1.20;;
72408;SDS011;60402;48.082;11.628;2022-09-12T13:35:38;3.08;;;1.30;;
72408;SDS011;60402;48.082;11.628;2022-09-12T13:38:32;2.20;;;1.13;;
72408;SDS011;60402;48.082;11.628;2022-09-12T13:41:14;2.03;;;1.10;;
72408;SDS011;60402;48.082;11.628;2022-09-12T13:43:44;1.80;;;1.05;;
72408;SDS011;60402;48.082;11.628;2022-09-12T13:46:15;2.05;;;1.00;;
72408;SDS011;60402;48.082;11.628;2022-09-12T13:48:47;3.05;;;1.15;;
72408;SDS011;60402;48.082;11.628;2022-09-12T13:51:23;3.55;;;1.30;;
72408;SDS011;60402;48.082;11.628;2022-09-12T13:53:52;2.08;;;1.10;;
72408;SDS011;60402;48.082;11.628;2022-09-12T13:56:22;4.20;;;1.20;;
72408;SDS011;60402;48.082;11.628;2022-09-12T13:58:51;2.05;;;1.00;;
72408;SDS011;60402;48.082;11.628;2022-09-12T14:01:19;3.00;;;1.27;;
72408;SDS011;60402;48.082;11.628;2022-09-12T14:03:49;1.90;;;1.00;;
72408;SDS011;60402;48.082;11.628;2022-09-12T14:06:45;3.00;;;1.40;;
72408;SDS011;60402;48.082;11.628;2022-09-12T14:09:13;2.08;;;1.27;;
72408;SDS011;60402;48.082;11.628;2022-09-12T14:14:05;2.65;;;1.10;;
72408;SDS011;60402;48.082;11.628;2022-09-12T14:16:55;2.40;;;1.48;;
72408;SDS011;60402;48.082;11.628;2022-09-12T14:19:22;1.50;;;1.08;;
72408;SDS011;60402;48.082;11.628;2022-09-12T14:21:50;2.03;;;1.13;;
72408;SDS011;60402;48.082;11.628;2022-09-12T14:24:17;1.83;;;1.10;;
72408;SDS011;60402;48.082;11.628;2022-09-12T14:26:47;1.98;;;1.10;;
72408;SDS011;60402;48.082;11.628;2022-09-12T14:29:14;2.65;;;1.10;;
72408;SDS011;60402;48.082;11.628;2022-09-12T14:31:41;2.50;;;1.20;;
72408;SDS011;60402;48.082;11.628;2022-09-12T14:34:12;2.88;;;1.20;;
72408;SDS011;60402;48.082;11.628;2022-09-12T14:39:16;2.13;;;1.10;;
72408;SDS011;60402;48.082;11.628;2022-09-12T14:41:46;1.80;;;1.00;;
72408;SDS011;60402;48.082;11.628;2022-09-12T14:44:16;2.20;;;1.10;;
72408;SDS011;60402;48.082;11.628;2022-09-12T14:46:45;2.38;;;1.10;;
72408;SDS011;60402;48.082;11.628;2022-09-12T14:49:16;3.38;;;1.20;;
72408;SDS011;60402;48.082;11.628;2022-09-12T14:51:58;2.83;;;1.20;;
72408;SDS011;60402;48.082;11.628;2022-09-12T14:59:44;3.75;;;1.27;;
72408;SDS011;60402;48.082;11.628;2022-09-12T15:07:39;2.20;;;1.20;;
72408;SDS011;60402;48.082;11.628;2022-09-12T15:10:20;1.60;;;1.02;;
72408;SDS011;60402;48.082;11.628;2022-09-12T15:12:49;2.67;;;1.10;;
72408;SDS011;60402;48.082;11.628;2022-09-12T15:15:28;2.33;;;1.10;;
72408;SDS011;60402;48.082;11.628;2022-09-12T15:17:53;2.15;;;1.15;;
72408;SDS011;60402;48.082;11.628;2022-09-12T15:20:19;1.87;;;0.97;;
72408;SDS011;60402;48.082;11.628;2022-09-12T15:22:44;2.17;;;1.00;;
72408;SDS011;60402;48.082;11.628;2022-09-12T15:25:13;2.53;;;1.23;;
72408;SDS011;60402;48.082;11.628;2022-09-12T15:30:05;2.88;;;1.20;;
72408;SDS011;60402;48.082;11.628;2022-09-12T15:32:31;2.38;;;1.00;;
72408;SDS011;60402;48.082;11.628;2022-09-12T15:34:58;3.80;;;1.38;;
72408;SDS011;60402;48.082;11.628;2022-09-12T15:37:23;2.13;;;1.15;;
72408;SDS011;60402;48.082;11.628;2022-09-12T15:39:49;1.77;;;1.08;;
72408;SDS011;60402;48.082;11.628;2022-09-12T15:42:16;1.75;;;1.00;;
72408;SDS011;60402;48.082;11.628;2022-09-12T15:44:52;1.30;;;0.93;;
72408;SDS011;60402;48.082;11.628;2022-09-12T15:47:17;2.30;;;0.90;;
72408;SDS011;60402;48.082;11.628;2022-09-12T15:49:43;2.28;;;1.00;;
72408;SDS011;60402;48.082;11.628;2022-09-12T15:52:10;2.50;;;1.00;;
72408;SDS011;60402;48.082;11.628;2022-09-12T15:54:39;2.83;;;1.02;;
72408;SDS011;60402;48.082;11.628;2022-09-12T15:57:05;1.90;;;1.00;;
72408;SDS011;60402;48.082;11.628;2022-09-12T15:59:30;1.92;;;1.10;;
72408;SDS011;60402;48.082;11.628;2022-09-12T16:01:55;2.08;;;1.10;;
72408;SDS011;60402;48.082;11.628;2022-09-12T16:04:24;2.07;;;1.10;;
72408;SDS011;60402;48.082;11.628;2022-09-12T16:06:50;2.33;;;1.17;;
72408;SDS011;60402;48.082;11.628;2022-09-12T16:09:17;2.10;;;0.90;;
72408;SDS011;60402;48.082;11.628;2022-09-12T16:11:42;2.25;;;1.25;;
72408;SDS011;60402;48.082;11.628;2022-09-12T16:14:09;2.65;;;1.30;;
72408;SDS011;60402;48.082;11.628;2022-09-12T16:16:38;2.47;;;1.13;;
72408;SDS011;60402;48.082;11.628;2022-09-12T16:19:03;2.67;;;1.30;;
72408;SDS011;60402;48.082;11.628;2022-09-12T16:21:29;3.72;;;1.15;;
72408;SDS011;60402;48.082;11.628;2022-09-12T16:23:55;2.30;;;1.17;;
72408;SDS011;60402;48.082;11.628;2022-09-12T16:26:21;3.55;;;1.30;;
72408;SDS011;60402;48.082;11.628;2022-09-12T16:28:46;1.77;;;1.10;;
72408;SDS011;60402;48.082;11.628;2022-09-12T16:31:12;3.25;;;1.30;;
72408;SDS011;60402;48.082;11.628;2022-09-12T16:33:39;3.05;;;1.23;;
72408;SDS011;60402;48.082;11.628;2022-09-12T16:36:05;2.35;;;1.30;;
72408;SDS011;60402;48.082;11.628;2022-09-12T16:38:32;3.08;;;1.40;;
72408;SDS011;60402;48.082;11.628;2022-09-12T16:41:02;2.35;;;1.25;;
72408;SDS011;60402;48.082;11.628;2022-09-12T16:43:28;4.00;;;1.73;;
72408;SDS011;60402;48.082;11.628;2022-09-12T16:46:01;2.97;;;1.30;;
72408;SDS011;60402;48.082;11.628;2022-09-12T16:48:28;2.45;;;1.10;;
72408;SDS011;60402;48.082;11.628;2022-09-12T16:50:57;3.80;;;1.25;;
72408;SDS011;60402;48.082;11.628;2022-09-12T16:53:23;4.00;;;1.70;;
72408;SDS011;60402;48.082;11.628;2022-09-12T16:55:49;2.20;;;1.10;;
72408;SDS011;60402;48.082;11.628;2022-09-12T16:58:15;3.80;;;1.45;;
72408;SDS011;60402;48.082;11.628;2022-09-12T17:00:40;2.95;;;1.50;;
72408;SDS011;60402;48.082;11.628;2022-09-12T17:03:06;4.78;;;1.73;;
72408;SDS011;60402;48.082;11.628;2022-09-12T17:05:31;2.77;;;1.67;;
72408;SDS011;60402;48.082;11.628;2022-09-12T17:07:56;3.90;;;1.75;;
72408;SDS011;60402;48.082;11.628;2022-09-12T17:10:21;2.58;;;1.25;;
72408;SDS011;60402;48.082;11.628;2022-09-12T17:12:47;2.65;;;1.50;;
72408;SDS011;60402;48.082;11.628;2022-09-12T17:15:12;2.20;;;1.43;;
72408;SDS011;60402;48.082;11.628;2022-09-12T17:17:37;3.00;;;1.55;;
72408;SDS011;60402;48.082;11.628;2022-09-12T17:20:03;2.88;;;1.48;;
72408;SDS011;60402;48.082;11.628;2022-09-12T17:22:28;3.67;;;1.33;;
72408;SDS011;60402;48.082;11.628;2022-09-12T17:24:54;3.03;;;1.23;;
72408;SDS011;60402;48.082;11.628;2022-09-12T17:27:19;2.35;;;1.35;;
72408;SDS011;60402;48.082;11.628;2022-09-12T17:29:44;2.47;;;1.40;;
72408;SDS011;60402;48.082;11.628;2022-09-12T17:32:10;3.38;;;1.30;;
72408;SDS011;60402;48.082;11.628;2022-09-12T17:34:35;2.70;;;1.30;;
72408;SDS011;60402;48.082;11.628;2022-09-12T17:37:00;4.07;;;1.77;;
72408;SDS011;60402;48.082;11.628;2022-09-12T17:39:25;3.83;;;1.70;;
72408;SDS011;60402;48.082;11.628;2022-09-12T17:41:51;2.95;;;1.48;;
72408;SDS011;60402;48.082;11.628;2022-09-12T17:44:18;3.22;;;1.35;;